AirNav   Bose ProFlight Series 2 Headset
 
 1767 users online  

22CA Commodore Center Seaplane Base
Sausalito, California, USA

GOING TO SAUSALITO?


FAA INFORMATION EFFECTIVE 02 JANUARY 2020

Location

FAA Identifier: 22CA
Lat/Long: 37-52-47.7350N 122-30-48.9060W
37-52.795583N 122-30.815100W
37.8799264,-122.5135850
(estimated)
Elevation: 0 ft. / 0 m (estimated)
Variation: 16E (1985)
From city: 2 miles NW of SAUSALITO, CA
Time zone: UTC -8 (UTC -7 during Daylight Saving Time)
Zip code: 94965

Seaplane Base Operations

Seaplane Base use: Private use. Permission required prior to landing
Activation date: 04/1949
Control tower: no
ARTCC: OAKLAND CENTER
FSS: OAKLAND FLIGHT SERVICE STATION
Attendance: 0830-DUSK
Pattern altitude: 800 ft. MSL
Wind indicator: yes
Segmented circle: no

Seaplane Base Communications

WX AWOS-AV at 18CN (9 nm SE): 119.925 (415-514-4209)
WX AWOS-3P at DVO (16 nm N): 120.675 (415-897-2236)
WX ASOS at OAK (17 nm SE): PHONE 510-214-1776
WX ASOS at SFO (17 nm SE): PHONE 650-827-8593

Nearby radio navigation aids

VOR radial/distance  VOR name  Freq  Var
SAUr359/1.5SAUSALITO VOR/DME116.2017E
OAKr287/16.6OAKLAND VOR/DME116.8017E
SFOr320/17.0SAN FRANCISCO VOR/DME115.8017E
SGDr183/19.2SCAGGS ISLAND VORTAC112.1017E
PYEr109/20.6POINT REYES VOR/DME113.7017E
CCRr229/24.3CONCORD VOR/DME117.0017E
OSIr322/31.3WOODSIDE VOR/DME113.9017E

Seaplane Base Services

Fuel available: 100LL
FUEL SALE TO TRANSIENTS RESTRICTED TO EMERGENCY ONLY.
Bottled oxygen: NONE
Bulk oxygen: NONE

Runway Information

Runway 11W/29W

Dimensions: 10000 x 2400 ft. / 3048 x 732 m
Surface: water
RUNWAY 11W  RUNWAY 29W
Traffic pattern: leftleft
Obstructions: 50 ft. bridge, 1500 ft. from runway, 200 ft. right of centerline, 30:1 slope to clear150 ft. hill, 3000 ft. from runway, 300 ft. right of centerline, 20:1 slope to clear

Seaplane Base Ownership and Management from official FAA records

Ownership: Privately-owned
Owner: SAN FRANCISCO SEAPLNE TOURS
242 REDWOOD HIGHWAY
MILL VALLEY, CA 94941
Phone 415-332-4843
Manager: AARON SINGER
242 REDWOOD HIGHWAY
MILL VALLEY, CA 94941
Phone 415-332-4843

Seaplane Base Operational Statistics

Aircraft based on the field: 4
Single engine airplanes: 4
    
Aircraft operations: avg 48/week *
100% local general aviation
<1% transient general aviation
* for 12-month period ending 15 January 2001

Additional Remarks

SEAPLANE LANE NOT MARKED.
BE ALERT NUMEROUS DRIFT WOOD PILES & DERELICT/SUNKEN VESSELS (RY 29).
FOR CD CTC NORCAL APCH AT 916-361-0519.

Instrument Procedures

There are no published instrument procedures at 22CA.

Some nearby airports with instrument procedures:

KDVO - Gnoss Field Airport (16 nm N)
KOAK - Metropolitan Oakland International Airport (17 nm SE)
KSFO - San Francisco International Airport (17 nm SE)
KHAF - Half Moon Bay Airport (22 nm S)
KCCR - Buchanan Field Airport (23 nm E)
 
Loc | Ops | Rwys | IFR | FBO | Links
Com | Nav | Svcs | Stats | Notes

Sonoma Jet Center
 
Area around 22CA (Commodore Center Seaplane Base)
 
Road maps at: MapQuest Bing Google
 
Aerial photo
No photo
 
Sectional chart

 
Airport distance calculator
Flying to Commodore Center Seaplane Base? Find the distance to fly.

From to 22CA

Sunrise and sunset
Times for 25-Jan-2020
 Local
(UTC-8)
 Zulu
(UTC)
Morning civil twilight06:5214:52
Sunrise07:2115:21
Sunset17:2401:24
Evening civil twilight17:5301:53

Current date and time
Zulu (UTC)  25-Jan-2020 16:33:22
Local (UTC-8)  25-Jan-2020 08:33:22
 
METAR
KDVO 
16nm N 
251615Z AUTO 19004KT 5SM BR OVC012 12/12 A3016 RMK AO2
KSFO 
17nm SE 
251603Z 08004KT 3SM BR BKN009 OVC015 12/11 A3016 RMK AO2 T01220106
KOAK 
18nm SE 
251553Z 09003KT 1/4SM FG BKN002 OVC008 13/12 A3016 RMK AO2 SLP214 T01330117 $
KHAF 
22nm S 
251615Z AUTO 14003KT 3/4SM BR OVC004 12/12 A3016 RMK AO2
KAPC 
22nm NE 
251620Z 00000KT 6SM BR SCT014 OVC055 12/11 A3015 RMK AO2 T01220111
KHWD 
23nm SE 
251605Z 00000KT 2SM BR OVC002 12/11 A3016 RMK AO2 T01170111
KO69 
23nm N 
251615Z AUTO 00000KT 3SM BR FEW004 SCT007 OVC050 12/12 A3016 RMK A01
KCCR 
23nm E 
251607Z 00000KT 5SM BR BKN014 OVC060 12/10 A3017 RMK AO2 T01220100
KSQL 
25nm SE 
251547Z 00000KT 3SM BKN004 OVC010 12/12 A3017
KPAO 
31nm SE 
251550Z 00000KT 2 SM BR OVC008 11/11 A3017
TAF
KSFO 
17nm SE 
251137Z 2512/2618 VRB03KT 3SM BR VCSH FEW003 BKN006 OVC025 TEMPO 2512/2516 1SM BR OVC004 FM251900 07004KT 4SM BR SCT007 BKN012 BKN025 FM252200 34005KT 6SM HZ FEW009 SCT025 BKN040 FM260200 20007KT 6SM BR VCSH SCT008 BKN020 BKN030 FM260900 20008KT 5SM -SHRA BR BKN007 BKN015 OVC025 FM261600 23006KT 6SM BR VCSH FEW008 SCT020 BKN030
KOAK 
18nm SE 
251137Z 2512/2618 VRB04KT 3SM BR SCT005 BKN035 OVC050 TEMPO 2512/2516 1 1/2SM BR BKN005 OVC025 FM251900 VRB04KT 6SM HZ FEW007 BKN030 BKN040 FM252100 27005KT 6SM HZ FEW009 SCT020 BKN035 FM260100 20007KT 6SM BR VCSH SCT009 BKN015 OVC030 FM260900 18008KT 5SM -SHRA BR BKN008 BKN015 OVC025 FM261600 23009KT 6SM BR VCSH FEW010 BKN020 BKN030
NOTAMs
Click for the latest NOTAMs
NOTAMs are issued by the DoD/FAA and will open in a separate window not controlled by AirNav.

 

 
 

Would you like to see your business listed on this page?

 If your business provides an interesting product or service to pilots, flight crews, aircraft, or users of the Commodore Center Seaplane Base, you should consider listing it here.  To start the listing process, click on the button below
 
Add a business
 

Other Pages about Commodore Center Seaplane Base

Update a link
 
Copyright © AirNav, LLC. All rights reserved. Privacy Policy  Contact